Time;durP1;ratioP1;P1;durP2;ratioP2;P2;SDS_P1;SDS_P2;PMS_P1;PMS_P2;Temp;Humidity;BMP_temperature;BMP_pressure;BME280_temperature;BME280_humidity;BME280_pressure;Samples;Min_cycle;Max_cycle;Signal;HPM_P1;HPM_P2
2022/01/02 00:02:50;;;;;;;8.43;4.37;;;;;;;9.15;100.00;101340.81;5589227;31;34046;-69
2022/01/02 00:05:55;;;;;;;7.22;4.50;;;;;;;9.04;100.00;101337.44;5588738;31;34099;-71
2022/01/02 00:09:06;;;;;;;8.02;4.28;;;;;;;8.98;100.00;101340.62;5588939;31;33958;-71
2022/01/02 00:12:17;;;;;;;7.70;4.40;;;;;;;9.02;100.00;101342.03;5589457;31;34591;-71
2022/01/02 00:15:22;;;;;;;8.55;4.70;;;;;;;9.04;100.00;101338.28;5588475;31;34085;-70
2022/01/02 00:18:27;;;;;;;8.85;4.25;;;;;;;9.02;100.00;101334.94;5589464;31;35254;-70
2022/01/02 00:21:35;;;;;;;6.20;4.25;;;;;;;9.11;100.00;101336.75;5589420;31;33934;-70
2022/01/02 00:24:40;;;;;;;10.75;3.92;;;;;;;9.01;100.00;101338.53;5588765;31;34076;-71
2022/01/02 00:27:44;;;;;;;7.68;4.35;;;;;;;8.95;100.00;101336.44;5588492;31;33992;-70
2022/01/02 00:30:48;;;;;;;9.95;4.60;;;;;;;9.00;100.00;101344.00;5589018;31;34011;-71
2022/01/02 00:33:51;;;;;;;8.95;4.53;;;;;;;9.04;100.00;101333.00;5588882;31;34668;-71
2022/01/02 00:36:54;;;;;;;10.00;4.40;;;;;;;9.13;100.00;101334.84;5588790;31;33935;-71
2022/01/02 00:39:56;;;;;;;10.52;4.90;;;;;;;9.10;100.00;101335.09;5588715;31;34016;-70
2022/01/02 00:43:04;;;;;;;10.68;4.40;;;;;;;9.06;100.00;101341.63;5588585;31;34260;-71
2022/01/02 00:46:10;;;;;;;7.07;4.03;;;;;;;9.07;100.00;101345.94;5588872;31;34095;-71
2022/01/02 00:49:17;;;;;;;8.80;4.53;;;;;;;9.12;100.00;101356.13;5588614;31;33966;-71
2022/01/02 00:52:20;;;;;;;8.43;4.30;;;;;;;9.08;100.00;101352.09;5587864;31;34296;-71
2022/01/02 00:55:25;;;;;;;9.85;4.55;;;;;;;9.04;100.00;101354.19;5588470;31;34676;-70
2022/01/02 00:58:45;;;;;;;8.55;4.40;;;;;;;8.97;100.00;101354.81;5588393;31;34739;-71
2022/01/02 01:01:57;;;;;;;9.35;4.45;;;;;;;8.94;100.00;101345.34;5588385;31;33981;-71
2022/01/02 01:05:05;;;;;;;8.30;4.70;;;;;;;8.88;100.00;101355.63;5588441;31;33949;-71
2022/01/02 01:08:09;;;;;;;9.63;4.95;;;;;;;8.94;100.00;101350.66;5587418;31;34037;-69
2022/01/02 01:11:11;;;;;;;8.20;4.37;;;;;;;8.71;100.00;101349.16;5587394;31;34048;-69
2022/01/02 01:14:15;;;;;;;8.38;4.47;;;;;;;8.57;100.00;101354.78;5587547;31;34566;-69
2022/01/02 01:17:18;;;;;;;10.90;4.55;;;;;;;8.46;100.00;101342.50;5587238;31;34735;-69
2022/01/02 01:20:24;;;;;;;8.55;4.70;;;;;;;8.56;100.00;101347.81;5588006;31;34004;-69
2022/01/02 01:23:26;;;;;;;9.88;4.75;;;;;;;8.58;100.00;101348.53;5587961;31;34380;-70
2022/01/02 01:26:29;;;;;;;7.12;4.12;;;;;;;8.38;100.00;101350.22;5587762;31;34740;-69
2022/01/02 01:29:34;;;;;;;12.18;5.15;;;;;;;8.37;100.00;101340.62;5587876;31;34115;-69
2022/01/02 01:32:38;;;;;;;9.13;4.78;;;;;;;8.37;100.00;101339.78;5587078;31;34011;-69
2022/01/02 01:35:42;;;;;;;11.57;5.15;;;;;;;8.40;100.00;101340.34;5587994;31;34694;-69
2022/01/02 01:38:45;;;;;;;8.80;4.78;;;;;;;8.46;100.00;101333.72;5589393;31;34301;-69
2022/01/02 01:41:49;;;;;;;8.48;4.75;;;;;;;8.43;100.00;101341.87;5590595;31;33952;-69
2022/01/02 01:45:28;;;;;;;8.85;4.65;;;;;;;8.44;100.00;101341.78;5590579;31;34163;-69
2022/01/02 01:48:15;;;;;;;8.23;4.70;;;;;;;8.36;100.00;101346.88;5590411;31;34464;-69
2022/01/02 01:51:18;;;;;;;9.70;5.03;;;;;;;8.36;100.00;101330.19;5576920;31;35280;-69
2022/01/02 01:54:22;;;;;;;10.05;5.12;;;;;;;8.35;100.00;101341.72;5590871;31;33976;-70
2022/01/02 01:57:25;;;;;;;11.73;5.10;;;;;;;8.31;100.00;101343.78;5590472;31;34009;-70
2022/01/02 02:00:29;;;;;;;9.43;4.90;;;;;;;8.30;100.00;101342.09;5589761;31;34633;-70
2022/01/02 02:03:32;;;;;;;9.23;5.28;;;;;;;8.26;100.00;101330.94;5590489;31;33940;-70
2022/01/02 02:06:36;;;;;;;10.80;4.95;;;;;;;8.21;100.00;101333.13;5590334;31;33921;-70
2022/01/02 02:13:15;;;;;;;10.82;4.80;;;;;;;8.08;100.00;101329.00;5564293;31;33915;-70
2022/01/02 02:16:18;;;;;;;11.73;5.25;;;;;;;8.11;100.00;101329.56;5590283;31;34177;-70
2022/01/02 02:19:21;;;;;;;10.98;5.00;;;;;;;8.09;100.00;101330.66;5590353;31;34031;-70
2022/01/02 02:22:25;;;;;;;11.40;5.60;;;;;;;8.07;100.00;101333.44;5590253;31;34729;-70
2022/01/02 02:25:32;;;;;;;10.98;5.18;;;;;;;8.00;100.00;101328.78;5590676;31;33899;-70
2022/01/02 02:28:35;;;;;;;8.93;5.22;;;;;;;7.99;100.00;101321.84;5590379;31;34593;-70
2022/01/02 02:31:38;;;;;;;8.50;5.65;;;;;;;7.91;100.00;101335.69;5590231;31;35221;-70
2022/01/02 02:34:41;;;;;;;12.63;5.28;;;;;;;7.83;100.00;101333.69;5584535;31;176056;-70
2022/01/02 02:37:45;;;;;;;10.85;5.25;;;;;;;7.82;100.00;101334.63;5590482;31;34342;-70
2022/01/02 02:40:49;;;;;;;8.20;4.80;;;;;;;7.87;100.00;101321.87;5590128;31;34547;-70
2022/01/02 02:44:00;;;;;;;15.57;5.57;;;;;;;7.90;100.00;101315.50;5589397;31;33922;-70
2022/01/02 02:50:25;;;;;;;9.95;4.97;;;;;;;7.89;100.00;101310.38;5590291;31;34372;-70
2022/01/02 02:53:29;;;;;;;9.70;5.32;;;;;;;7.86;100.00;101312.28;5589978;31;34256;-70
2022/01/02 02:56:54;;;;;;;9.20;4.95;;;;;;;7.82;100.00;101313.50;5589984;31;33978;-70
2022/01/02 02:59:58;;;;;;;10.43;5.40;;;;;;;7.80;100.00;101323.34;5589494;31;34158;-70
2022/01/02 03:03:00;;;;;;;9.32;5.20;;;;;;;7.75;100.00;101314.97;5589842;31;33961;-70
2022/01/02 03:06:05;;;;;;;9.25;4.90;;;;;;;7.76;100.00;101313.16;5589707;31;34810;-70
2022/01/02 03:09:09;;;;;;;10.38;4.82;;;;;;;7.73;100.00;101309.00;5590123;31;34084;-70
2022/01/02 03:12:13;;;;;;;10.55;5.05;;;;;;;7.71;100.00;101310.91;5589887;31;33970;-70
2022/01/02 03:15:16;;;;;;;9.68;5.07;;;;;;;7.36;100.00;101308.50;5589788;31;34677;-70
2022/01/02 03:18:19;;;;;;;8.80;4.93;;;;;;;7.34;100.00;101310.44;5589934;31;34056;-70
2022/01/02 03:21:22;;;;;;;10.32;4.78;;;;;;;7.05;100.00;101309.31;5589065;31;35247;-70
2022/01/02 03:24:26;;;;;;;15.02;5.35;;;;;;;6.89;100.00;101306.19;5590025;31;33978;-70
2022/01/02 03:27:32;;;;;;;8.98;4.72;;;;;;;6.79;100.00;101295.53;5589800;31;34589;-70
2022/01/02 03:30:35;;;;;;;10.90;5.25;;;;;;;6.69;100.00;101285.84;5589124;31;34009;-70
2022/01/02 03:33:38;;;;;;;9.48;5.40;;;;;;;6.61;100.00;101296.16;5589432;31;34597;-70
2022/01/02 03:36:41;;;;;;;10.52;5.72;;;;;;;6.51;100.00;101288.97;5589650;31;34142;-70
2022/01/02 03:39:44;;;;;;;7.40;4.37;;;;;;;6.44;100.00;101294.81;5588862;31;32738;-70
2022/01/02 03:42:47;;;;;;;9.57;5.43;;;;;;;6.33;100.00;101287.75;5588785;31;34571;-70
2022/01/02 03:45:50;;;;;;;9.98;5.72;;;;;;;6.27;100.00;101282.13;5589455;31;33927;-70
2022/01/02 03:48:53;;;;;;;12.60;5.57;;;;;;;6.20;100.00;101273.84;5589597;31;34439;-70
2022/01/02 03:51:56;;;;;;;10.00;5.28;;;;;;;6.15;100.00;101289.16;5588998;31;33919;-70
2022/01/02 03:54:59;;;;;;;10.15;5.43;;;;;;;6.01;100.00;101277.03;5589699;31;33848;-70
2022/01/02 03:58:02;;;;;;;12.02;5.43;;;;;;;5.95;100.00;101281.94;5589407;31;34340;-70
2022/01/02 04:01:07;;;;;;;11.02;5.53;;;;;;;5.89;100.00;101279.78;5588715;31;33958;-70
2022/01/02 04:04:10;;;;;;;10.30;5.18;;;;;;;5.82;100.00;101279.34;5589386;31;34635;-69
2022/01/02 04:07:14;;;;;;;10.85;5.97;;;;;;;5.83;100.00;101278.41;5589180;31;34678;-69
2022/01/02 04:10:18;;;;;;;10.15;5.60;;;;;;;5.88;100.00;101278.09;5589212;31;33950;-70
2022/01/02 04:13:21;;;;;;;10.50;5.47;;;;;;;5.85;100.00;101273.87;5589251;31;34696;-69
2022/01/02 04:16:24;;;;;;;10.93;5.85;;;;;;;5.76;100.00;101279.81;5588352;31;33935;-69
2022/01/02 04:19:27;;;;;;;10.02;5.32;;;;;;;5.71;100.00;101283.75;5588982;31;34815;-69
2022/01/02 04:22:30;;;;;;;10.20;5.60;;;;;;;5.75;100.00;101277.31;5589028;31;34615;-70
2022/01/02 04:25:33;;;;;;;11.82;5.72;;;;;;;5.62;100.00;101278.22;5588922;31;33869;-69
2022/01/02 04:28:36;;;;;;;15.55;6.37;;;;;;;5.62;100.00;101282.62;5588096;31;33935;-69
2022/01/02 04:31:38;;;;;;;10.48;6.03;;;;;;;5.86;100.00;101291.31;5588973;31;34321;-69
2022/01/02 04:34:42;;;;;;;9.85;5.80;;;;;;;5.76;100.00;101289.53;5588689;31;34073;-70
2022/01/02 04:37:46;;;;;;;11.75;5.80;;;;;;;5.54;100.00;101296.38;5588411;31;34026;-70
2022/01/02 04:40:49;;;;;;;11.95;5.62;;;;;;;5.43;100.00;101291.06;5588070;31;34084;-69
2022/01/02 04:43:52;;;;;;;11.60;6.22;;;;;;;5.36;100.00;101289.00;5589001;31;34120;-69
2022/01/02 04:46:55;;;;;;;11.43;5.60;;;;;;;5.29;100.00;101285.13;5588586;31;34033;-70
2022/01/02 04:49:58;;;;;;;9.98;6.12;;;;;;;5.22;100.00;101295.25;5588436;31;34201;-69
2022/01/02 04:53:01;;;;;;;11.50;6.50;;;;;;;5.11;100.00;101292.56;5588779;31;33880;-70
2022/01/02 04:56:03;;;;;;;9.88;5.82;;;;;;;5.07;100.00;101293.75;5587587;31;34375;-70
2022/01/02 04:59:06;;;;;;;12.82;6.57;;;;;;;5.04;100.00;101293.94;5588680;31;35313;-69
2022/01/02 05:02:09;;;;;;;10.18;5.60;;;;;;;5.05;100.00;101298.25;5588646;31;33890;-70
2022/01/02 05:05:12;;;;;;;11.70;6.43;;;;;;;5.05;100.00;101293.84;5587974;31;34028;-70
2022/01/02 05:08:20;;;;;;;12.77;6.10;;;;;;;5.08;100.00;101295.41;5588112;31;34664;-70
2022/01/02 05:11:23;;;;;;;10.90;6.10;;;;;;;4.98;100.00;101283.88;5587433;31;34570;-70
2022/01/02 05:14:26;;;;;;;12.15;7.55;;;;;;;4.98;100.00;101283.88;5590274;31;34667;-70
2022/01/02 05:17:29;;;;;;;12.23;6.55;;;;;;;5.01;100.00;101283.66;5591089;31;34002;-70
2022/01/02 05:20:32;;;;;;;15.30;7.07;;;;;;;4.92;100.00;101277.25;5590703;31;34135;-70
2022/01/02 05:23:35;;;;;;;12.98;6.87;;;;;;;4.84;100.00;101271.72;5591020;31;34587;-70
2022/01/02 05:26:37;;;;;;;13.55;6.68;;;;;;;4.74;100.00;101284.66;5591052;31;34372;-70
2022/01/02 05:29:41;;;;;;;13.73;6.60;;;;;;;4.86;100.00;101280.31;5590881;31;34355;-70
2022/01/02 05:32:44;;;;;;;12.75;6.05;;;;;;;4.92;100.00;101285.16;5590660;31;34272;-70
2022/01/02 05:35:47;;;;;;;11.05;6.57;;;;;;;4.82;100.00;101279.72;5590432;31;34679;-70
2022/01/02 05:38:50;;;;;;;14.05;7.25;;;;;;;4.73;100.00;101277.75;5590490;31;34200;-70
2022/01/02 05:41:53;;;;;;;10.70;6.47;;;;;;;4.74;100.00;101278.59;5590636;31;34568;-70
2022/01/02 05:44:56;;;;;;;12.30;6.40;;;;;;;4.74;100.00;101276.75;5590590;31;33908;-70
2022/01/02 05:48:01;;;;;;;16.48;6.72;;;;;;;4.72;100.00;101275.22;5590574;31;33962;-70
2022/01/02 05:51:04;;;;;;;14.87;6.53;;;;;;;4.62;100.00;101268.91;5590370;31;34272;-70
2022/01/02 05:54:08;;;;;;;14.27;7.45;;;;;;;4.56;100.00;101264.94;5590547;31;34827;-70
2022/01/02 05:57:11;;;;;;;10.10;6.53;;;;;;;4.44;100.00;101268.44;5590140;31;34340;-70
2022/01/02 06:00:15;;;;;;;12.55;6.68;;;;;;;4.37;100.00;101270.63;5590541;31;33976;-71
2022/01/02 06:03:19;;;;;;;15.73;7.37;;;;;;;4.29;100.00;101261.59;5590532;31;34826;-70
2022/01/02 06:06:22;;;;;;;12.70;8.00;;;;;;;4.24;100.00;101272.44;5590927;31;34012;-71
2022/01/02 06:09:25;;;;;;;12.25;7.12;;;;;;;4.21;100.00;101275.25;5590421;31;33968;-71
2022/01/02 06:12:28;;;;;;;15.98;8.93;;;;;;;4.17;100.00;101271.16;5590347;31;32954;-71
2022/01/02 06:15:31;;;;;;;15.45;7.12;;;;;;;4.14;100.00;101271.37;5590657;31;34644;-71
2022/01/02 06:18:34;;;;;;;15.23;8.18;;;;;;;4.13;100.00;101264.44;5590723;31;33994;-71
2022/01/02 06:21:37;;;;;;;13.98;7.93;;;;;;;4.11;100.00;101263.72;5589392;31;34577;-70
2022/01/02 06:24:40;;;;;;;13.38;7.53;;;;;;;4.07;100.00;101256.12;5589895;31;34429;-70
2022/01/02 06:27:43;;;;;;;16.62;7.97;;;;;;;4.02;100.00;101263.50;5590177;31;34345;-70
2022/01/02 06:30:46;;;;;;;17.65;7.72;;;;;;;3.99;100.00;101266.31;5589889;31;33859;-71
2022/01/02 06:33:49;;;;;;;15.85;7.78;;;;;;;3.99;100.00;101261.91;5589289;31;34651;-70
2022/01/02 06:36:52;;;;;;;16.50;8.35;;;;;;;3.93;100.00;101265.78;5590201;31;34649;-70
2022/01/02 06:39:56;;;;;;;16.90;8.68;;;;;;;3.91;100.00;101265.06;5589865;31;33961;-70
2022/01/02 06:42:59;;;;;;;18.62;8.90;;;;;;;3.87;100.00;101260.13;5576658;31;34225;-70
2022/01/02 06:46:02;;;;;;;17.60;9.07;;;;;;;3.83;100.00;101261.25;5590162;31;33884;-70
2022/01/02 06:49:05;;;;;;;21.62;9.75;;;;;;;3.86;100.00;101261.91;5589901;31;34625;-71
2022/01/02 06:52:24;;;;;;;18.60;9.35;;;;;;;3.86;100.00;101256.66;5589849;31;34293;-70
2022/01/02 06:55:27;;;;;;;19.25;10.07;;;;;;;3.91;100.00;101261.59;5590266;31;33937;-70
2022/01/02 06:58:31;;;;;;;20.85;10.07;;;;;;;4.00;100.00;101257.50;5589865;31;34060;-70
2022/01/02 07:01:34;;;;;;;20.77;10.20;;;;;;;4.08;100.00;101263.91;5589898;31;34531;-71
2022/01/02 07:04:37;;;;;;;17.45;9.73;;;;;;;4.11;100.00;101266.34;5588888;31;34714;-71
2022/01/02 07:07:42;;;;;;;20.33;10.90;;;;;;;4.19;100.00;101279.78;5589078;31;34001;-70
2022/01/02 07:10:45;;;;;;;23.62;10.90;;;;;;;4.25;100.00;101278.53;5590044;31;34010;-70
2022/01/02 07:13:48;;;;;;;21.80;10.77;;;;;;;4.21;100.00;101277.87;5590134;31;34558;-71
2022/01/02 07:16:50;;;;;;;20.67;10.52;;;;;;;4.25;100.00;101281.16;5588931;31;34649;-70
2022/01/02 07:19:53;;;;;;;18.50;11.07;;;;;;;4.23;100.00;101283.88;5588782;31;34365;-70
2022/01/02 07:22:56;;;;;;;19.85;10.77;;;;;;;4.41;100.00;101286.16;5589621;31;34842;-71
2022/01/02 07:25:58;;;;;;;21.23;11.07;;;;;;;4.65;100.00;101289.72;5589668;31;34115;-70
2022/01/02 07:29:01;;;;;;;21.25;10.98;;;;;;;4.59;100.00;101277.87;5589256;31;34104;-71
2022/01/02 07:32:04;;;;;;;22.90;11.15;;;;;;;4.60;100.00;101271.66;5589609;31;34300;-71
2022/01/02 07:35:08;;;;;;;19.73;11.40;;;;;;;4.79;100.00;101274.66;5588580;31;34189;-70
2022/01/02 07:38:10;;;;;;;24.50;11.80;;;;;;;4.89;100.00;101274.84;5589637;31;34158;-71
2022/01/02 07:41:14;;;;;;;17.65;10.43;;;;;;;4.94;100.00;101274.53;5588473;31;33958;-71
2022/01/02 07:44:16;;;;;;;19.65;10.95;;;;;;;4.94;100.00;101277.16;5589495;31;34074;-71
2022/01/02 07:47:19;;;;;;;21.23;10.70;;;;;;;4.91;100.00;101262.44;5589226;31;34382;-71
2022/01/02 07:50:22;;;;;;;18.60;11.40;;;;;;;5.02;100.00;101261.66;5588462;31;34655;-71
2022/01/02 07:53:25;;;;;;;22.83;11.80;;;;;;;5.11;100.00;101261.00;5589619;31;34845;-71
2022/01/02 07:56:28;;;;;;;20.52;11.40;;;;;;;5.20;100.00;101268.22;5589487;31;33951;-71
2022/01/02 07:59:31;;;;;;;19.85;12.00;;;;;;;5.16;100.00;101267.59;5588583;31;33921;-71
2022/01/02 08:02:54;;;;;;;21.12;11.10;;;;;;;5.22;100.00;101266.31;5589249;31;34164;-71
2022/01/02 08:05:57;;;;;;;21.42;10.93;;;;;;;5.29;100.00;101267.53;5588575;31;34651;-71
2022/01/02 08:09:00;;;;;;;18.92;11.00;;;;;;;5.43;100.00;101261.25;5588491;31;33941;-71
2022/01/02 08:12:03;;;;;;;20.10;10.88;;;;;;;5.41;100.00;101242.97;5589264;31;34181;-73
2022/01/02 08:15:06;;;;;;;16.80;11.32;;;;;;;5.44;100.00;101237.47;5589019;31;34644;-73
2022/01/02 08:18:13;;;;;;;21.25;11.50;;;;;;;5.49;100.00;101230.06;5588430;31;34688;-72
2022/01/02 08:21:16;;;;;;;19.02;10.38;;;;;;;5.57;100.00;101232.12;5589081;31;34344;-72
2022/01/02 08:24:18;;;;;;;22.70;12.50;;;;;;;5.57;100.00;101240.03;5588962;31;34261;-72
2022/01/02 08:27:21;;;;;;;17.08;10.70;;;;;;;5.59;100.00;101241.59;5589068;31;34583;-72
2022/01/02 08:30:24;;;;;;;16.73;10.32;;;;;;;5.62;100.00;101241.34;5588920;31;34640;-72
2022/01/02 08:33:27;;;;;;;17.10;11.27;;;;;;;5.68;100.00;101243.53;5588887;31;33712;-73
2022/01/02 08:36:30;;;;;;;19.12;10.73;;;;;;;5.68;100.00;101245.31;5588841;31;34710;-72
2022/01/02 08:39:33;;;;;;;19.65;11.60;;;;;;;5.88;100.00;101238.59;5588694;31;33966;-70
2022/01/02 08:42:35;;;;;;;18.15;11.35;;;;;;;5.85;100.00;101242.28;5588656;31;34030;-70
2022/01/02 08:45:38;;;;;;;18.60;11.25;;;;;;;6.07;100.00;101244.97;5588364;31;34055;-72
2022/01/02 08:48:41;;;;;;;17.52;11.00;;;;;;;6.09;100.00;101227.25;5590956;31;34116;-70
2022/01/02 08:51:44;;;;;;;23.45;10.88;;;;;;;6.04;100.00;101220.66;5591342;31;34628;-72
2022/01/02 08:54:47;;;;;;;21.87;10.85;;;;;;;6.13;100.00;101230.50;5590928;31;35411;-72
2022/01/02 08:57:49;;;;;;;19.10;10.85;;;;;;;6.25;100.00;101228.69;5591097;31;34699;-72
2022/01/02 09:00:52;;;;;;;17.08;10.20;;;;;;;6.23;100.00;101226.19;5591270;31;34555;-72
2022/01/02 09:03:55;;;;;;;22.27;11.35;;;;;;;6.31;100.00;101215.88;5590095;31;34252;-72
2022/01/02 09:06:58;;;;;;;18.02;10.68;;;;;;;6.41;100.00;101208.09;5590953;31;33916;-72
2022/01/02 09:10:01;;;;;;;19.27;11.25;;;;;;;6.44;100.00;101224.50;5590777;31;33950;-72
2022/01/02 09:13:04;;;;;;;21.55;11.52;;;;;;;6.54;100.00;101222.81;5590134;31;34148;-70
2022/01/02 09:16:07;;;;;;;21.25;11.18;;;;;;;6.65;100.00;101219.31;5590370;31;33992;-72
2022/01/02 09:19:12;;;;;;;18.23;10.75;;;;;;;6.74;100.00;101215.94;5590851;31;34561;-70
2022/01/02 09:22:15;;;;;;;20.90;11.50;;;;;;;6.86;100.00;101207.06;5590700;31;34400;-71
2022/01/02 09:25:18;;;;;;;17.45;10.90;;;;;;;6.95;100.00;101208.12;5590327;31;34473;-70
2022/01/02 09:28:20;;;;;;;22.20;11.18;;;;;;;7.06;100.00;101209.91;5590496;31;35288;-70
2022/01/02 09:31:23;;;;;;;19.35;10.63;;;;;;;7.13;100.00;101219.81;5590972;31;34769;-70
2022/01/02 09:34:26;;;;;;;20.12;11.00;;;;;;;7.22;100.00;101224.34;5590352;31;33973;-70
2022/01/02 09:37:29;;;;;;;18.05;10.75;;;;;;;7.31;100.00;101220.13;5590087;31;34668;-72
2022/01/02 09:40:32;;;;;;;18.40;10.65;;;;;;;7.47;100.00;101223.16;5590249;31;34044;-72
2022/01/02 09:43:35;;;;;;;18.52;11.00;;;;;;;7.52;100.00;101207.78;5590378;31;34664;-70
2022/01/02 09:46:39;;;;;;;20.00;10.73;;;;;;;7.58;100.00;101196.69;5589694;31;34358;-70
2022/01/02 09:49:44;;;;;;;20.48;11.75;;;;;;;7.64;100.00;101172.44;5590168;31;34395;-70
2022/01/02 09:52:50;;;;;;;19.70;11.20;;;;;;;7.76;100.00;101162.59;5590572;31;35351;-70
2022/01/02 09:55:54;;;;;;;18.25;10.90;;;;;;;7.81;100.00;101166.53;5589999;31;34112;-70
2022/01/02 09:58:56;;;;;;;19.05;11.55;;;;;;;7.85;100.00;101157.38;5589636;31;34021;-70
2022/01/02 10:02:01;;;;;;;21.45;11.85;;;;;;;7.96;100.00;101140.59;5590001;31;33960;-70
2022/01/02 10:05:04;;;;;;;22.62;12.65;;;;;;;8.17;100.00;101141.41;5590203;31;35316;-70
2022/01/02 10:08:20;;;;;;;18.33;11.00;;;;;;;8.17;100.00;101144.03;5589022;31;34714;-70
2022/01/02 10:11:24;;;;;;;19.95;10.77;;;;;;;8.33;100.00;101137.47;5590111;31;34654;-70
2022/01/02 10:14:27;;;;;;;20.12;10.88;;;;;;;8.42;100.00;101132.19;5590236;31;34059;-70
2022/01/02 10:17:30;;;;;;;17.48;10.60;;;;;;;8.57;100.00;101128.16;5590008;31;34363;-70
2022/01/02 10:20:38;;;;;;;17.65;10.77;;;;;;;8.75;100.00;101133.62;5590363;31;34590;-70
2022/01/02 10:23:41;;;;;;;22.40;11.68;;;;;;;8.93;100.00;101134.63;5589469;31;33932;-70
2022/01/02 10:27:03;;;;;;;16.12;8.65;;;;;;;9.15;100.00;101126.38;5589556;31;34196;-70
2022/01/02 10:30:07;;;;;;;14.45;8.15;;;;;;;9.46;100.00;101121.75;5589878;31;33964;-70
2022/01/02 10:33:09;;;;;;;17.98;9.25;;;;;;;9.57;98.82;101110.16;5589098;31;33933;-70
2022/01/02 10:36:14;;;;;;;15.80;8.43;;;;;;;9.76;96.50;101101.31;5589778;31;33994;-70
2022/01/02 10:39:20;;;;;;;20.85;10.15;;;;;;;9.78;96.11;101086.12;5589664;31;34676;-70
2022/01/02 10:42:23;;;;;;;18.92;8.23;;;;;;;9.68;96.85;101075.56;5589920;31;34053;-71
2022/01/02 10:45:34;;;;;;;17.60;9.65;;;;;;;9.77;96.67;101071.19;5589784;31;34321;-72
2022/01/02 10:48:40;;;;;;;15.73;9.40;;;;;;;9.85;95.85;101068.66;5589243;31;34224;-70
2022/01/02 10:51:42;;;;;;;15.38;8.52;;;;;;;9.93;94.98;101077.53;5589605;31;34790;-70
2022/01/02 10:54:45;;;;;;;14.18;8.60;;;;;;;9.82;95.31;101077.75;5589646;31;34206;-70
2022/01/02 10:57:49;;;;;;;18.27;10.00;;;;;;;9.86;95.00;101063.22;5589536;31;34530;-72
2022/01/02 11:00:53;;;;;;;17.55;10.02;;;;;;;9.82;95.28;101053.06;5588979;31;34577;-70
2022/01/02 11:03:57;;;;;;;16.23;10.18;;;;;;;9.85;94.67;101040.34;5589664;31;32499;-72
2022/01/02 11:07:02;;;;;;;16.77;9.90;;;;;;;9.96;94.10;101036.66;5589646;31;34024;-72
2022/01/02 11:10:05;;;;;;;17.62;9.88;;;;;;;9.95;95.36;101033.16;5587554;31;34134;-70
2022/01/02 11:13:08;;;;;;;24.15;10.73;;;;;;;9.99;94.74;101036.34;5588992;31;34679;-71
2022/01/02 11:16:11;;;;;;;16.58;8.95;;;;;;;9.99;94.95;101015.97;5589422;31;35186;-70
2022/01/02 11:19:14;;;;;;;14.63;7.35;;;;;;;10.10;94.66;101022.91;5589374;31;34105;-71
2022/01/02 11:22:52;;;;;;;12.37;7.05;;;;;;;10.29;90.40;101006.91;5589832;31;33988;-71
2022/01/02 11:26:03;;;;;;;12.47;6.50;;;;;;;10.36;90.07;101013.25;5589578;31;35272;-71
2022/01/02 11:29:06;;;;;;;13.57;7.00;;;;;;;10.67;87.73;101007.56;5589075;31;34198;-70
2022/01/02 11:32:26;;;;;;;16.75;7.85;;;;;;;10.67;87.88;101000.44;5589542;31;34608;-70
2022/01/02 11:35:33;;;;;;;14.55;6.82;;;;;;;10.71;87.14;100998.31;5589470;31;34595;-70
2022/01/02 11:38:43;;;;;;;13.35;6.60;;;;;;;10.77;85.57;100995.88;5589524;31;33894;-71
2022/01/02 11:41:51;;;;;;;12.10;6.43;;;;;;;10.74;86.94;100990.06;5589100;31;34201;-70
2022/01/02 11:44:54;;;;;;;11.48;6.28;;;;;;;10.71;85.26;100982.37;5589544;31;33973;-70
2022/01/02 11:47:57;;;;;;;11.43;6.80;;;;;;;10.81;85.91;100969.84;5589308;31;34140;-70
2022/01/02 11:51:00;;;;;;;11.57;6.32;;;;;;;10.76;85.53;100965.00;5589648;31;33924;-70
2022/01/02 11:54:02;;;;;;;8.68;5.47;;;;;;;10.79;86.24;100958.59;5589410;31;34114;-70
2022/01/02 11:57:11;;;;;;;12.70;5.65;;;;;;;10.82;85.81;100959.09;5588946;31;34101;-70
2022/01/02 12:00:31;;;;;;;11.98;5.65;;;;;;;10.98;85.35;100958.38;5589638;31;34912;-70
2022/01/02 12:03:40;;;;;;;14.02;6.10;;;;;;;11.04;84.21;100949.75;5589292;31;34119;-70
2022/01/02 12:06:45;;;;;;;9.95;5.10;;;;;;;11.08;84.32;100943.19;5588346;31;33908;-70
2022/01/02 12:09:48;;;;;;;12.37;5.78;;;;;;;11.21;83.78;100929.47;5589150;31;34305;-70
2022/01/02 12:12:57;;;;;;;11.07;5.78;;;;;;;11.31;82.01;100924.87;5588117;31;33928;-70
2022/01/02 12:16:01;;;;;;;11.25;6.07;;;;;;;11.62;80.98;100933.94;5588879;31;34125;-70
2022/01/02 12:19:04;;;;;;;11.77;6.30;;;;;;;11.57;80.01;100925.63;5589263;31;33961;-70
2022/01/02 12:22:09;;;;;;;11.90;6.25;;;;;;;11.51;80.60;100917.47;5586890;31;33978;-70
2022/01/02 12:25:23;;;;;;;11.98;6.60;;;;;;;11.55;80.45;100902.88;5587917;31;35270;-71
2022/01/02 12:28:28;;;;;;;10.75;6.20;;;;;;;11.61;80.78;100900.41;5588735;31;34042;-70
2022/01/02 12:31:39;;;;;;;13.05;6.18;;;;;;;11.92;79.89;100886.53;5588438;31;34153;-70
2022/01/02 12:34:42;;;;;;;11.07;5.70;;;;;;;12.10;78.53;100884.56;5588514;31;33987;-70
2022/01/02 12:37:45;;;;;;;13.70;5.68;;;;;;;12.22;77.62;100885.06;5588564;31;33979;-70
2022/01/02 12:40:49;;;;;;;14.70;5.62;;;;;;;12.42;77.34;100897.03;5587933;31;34320;-69
2022/01/02 12:44:05;;;;;;;10.38;4.85;;;;;;;12.31;76.66;100894.69;5588485;31;34104;-69
2022/01/02 12:47:10;;;;;;;9.10;4.85;;;;;;;12.22;76.95;100896.53;5587828;31;34530;-69
2022/01/02 12:50:25;;;;;;;10.65;4.85;;;;;;;12.09;78.32;100888.22;5588749;31;35379;-70
2022/01/02 12:53:28;;;;;;;10.20;3.75;;;;;;;11.97;78.13;100890.38;5588646;31;34706;-68
2022/01/02 12:56:35;;;;;;;9.73;3.95;;;;;;;11.74;77.53;100887.50;5587581;31;33891;-69
2022/01/02 12:59:45;;;;;;;7.80;3.60;;;;;;;11.67;78.73;100889.09;5588426;31;34005;-70
2022/01/02 13:02:52;;;;;;;6.85;4.00;;;;;;;11.90;77.82;100883.22;5588069;31;34139;-69
2022/01/02 13:05:56;;;;;;;7.60;4.20;;;;;;;12.04;78.11;100887.87;5588211;31;33685;-70
2022/01/02 13:08:58;;;;;;;8.88;4.18;;;;;;;12.13;76.98;100879.75;5588147;31;33995;-69
2022/01/02 13:12:02;;;;;;;6.78;4.60;;;;;;;12.38;76.22;100879.75;5588117;31;34053;-69
2022/01/02 13:15:10;;;;;;;8.10;4.55;;;;;;;12.40;76.66;100870.59;5587803;31;34700;-69
2022/01/02 13:18:14;;;;;;;8.40;4.40;;;;;;;12.26;77.95;100867.78;5588186;31;34762;-69
2022/01/02 13:21:17;;;;;;;9.07;4.50;;;;;;;11.86;79.45;100866.75;5587112;31;34043;-71
2022/01/02 13:24:28;;;;;;;12.43;4.85;;;;;;;11.85;80.24;100858.94;5587195;31;34088;-69
2022/01/02 13:27:31;;;;;;;7.35;4.50;;;;;;;11.72;80.94;100859.38;5586490;31;34127;-69
2022/01/02 13:30:48;;;;;;;9.77;4.87;;;;;;;11.83;80.63;100855.62;5587937;31;33993;-69
2022/01/02 13:33:51;;;;;;;8.70;4.50;;;;;;;11.48;81.92;100857.50;5588342;31;34811;-71
2022/01/02 13:36:58;;;;;;;9.95;5.00;;;;;;;11.50;83.33;100852.88;5589626;31;34593;-71
2022/01/02 13:40:03;;;;;;;9.18;5.15;;;;;;;11.56;83.56;100851.41;5590597;31;34585;-71
2022/01/02 13:43:10;;;;;;;12.37;5.30;;;;;;;11.50;83.50;100854.69;5590284;31;35278;-71
2022/01/02 13:46:12;;;;;;;12.25;5.43;;;;;;;11.30;84.15;100838.19;5590461;31;34345;-71
2022/01/02 13:49:39;;;;;;;10.00;5.57;;;;;;;11.32;84.60;100836.22;5590379;31;33997;-71
2022/01/02 13:52:53;;;;;;;11.82;5.68;;;;;;;11.43;84.93;100833.25;5590703;31;34688;-71
2022/01/02 13:56:05;;;;;;;15.82;6.30;;;;;;;11.36;84.87;100828.75;5590509;31;34568;-71
2022/01/02 13:59:11;;;;;;;12.88;6.25;;;;;;;11.33;84.72;100832.53;5590318;31;34017;-70
2022/01/02 14:02:14;;;;;;;18.60;6.80;;;;;;;11.27;85.33;100836.72;5590319;31;33592;-70
2022/01/02 14:05:44;;;;;;;17.87;6.93;;;;;;;11.21;86.27;100844.47;5590553;31;34636;-71
2022/01/02 14:08:48;;;;;;;12.93;6.68;;;;;;;11.14;86.84;100838.97;5590360;31;34073;-70
2022/01/02 14:11:53;;;;;;;13.88;6.57;;;;;;;11.08;87.49;100833.47;5589990;31;34614;-71
2022/01/02 14:15:02;;;;;;;11.75;6.32;;;;;;;10.94;88.35;100832.22;5589256;31;34661;-71
2022/01/02 14:18:06;;;;;;;15.90;6.75;;;;;;;10.92;88.81;100820.13;5589884;31;33996;-70